Ana Sayfa
METAR-TAF:

METAR-TAF

Havaalanları :

İncirlik Hava Üssü

İncirlik, Türkiye

Enlem: 37-00N, Boylam: 035-25E, yükseklik: 73 m

Güncel hava durumu gözlemi

Rapor saat 08:50 UTC de 22 dakika önce yapıldı.
Rüzgar kuzeydan 6 kt
Sıcaklık 17°C
Nem 25%
Basınç 1019 hPa
Görüş mesafesi 10 km veya daha fazla
1500 m altında bulut yok ve kümülonimbus yok

METAR: LTAG 170850Z 36006KT CAVOK 17/M03 Q1019 NOSIG

Saat: 12:12 (09:12 UTC)

Tahmin

Rapor saat 04:40 UTC de 4 saat ve 32 dakika önce yapıldı.
Ayın 17'si saat 06 UTC'den ayın 18'si saat 06 UTC'ye kadar geçerli Tahmin
Rüzgar kuzey/kuzeydoğudan 8 kt
Görüş mesafesi 10 km veya daha fazla
1500 m altında bulut yok ve kümülonimbus yok

TAF: LTAG 170440Z 1706/1806 03008KT CAVOK

4.000'den fazla havaalanı için hava durumu gözlemleri ve tahminleri (METAR ve TAF raporları).

Kullanılabilir istasyonlar harita üzerinde sarı ve kırmızı noktalarla gösterilir.

İstasyonun adını görmek için fareyi noktanın üzerinde gezdirin.

Sonrasında hava gözlem ve tahminlerini görmek için tıklayın.

Haritayı değiştirmek için: yaklaştırmak için siyah artı işaretli yeşil düğmeye ve uzaklaştırmak için de eksi işaretli düğmeye hızla tıklayın; bitişik haritalar için yeşil okları kullanın.


METAR-TAF: